createdAt,value
2022-08-22T00:00:50.277Z,80.25
2022-08-22T00:02:42.775Z,67.08
2022-08-22T00:04:14.531Z,80.48
2022-08-22T00:07:37.129Z,80.31
2022-08-22T00:10:58.186Z,80.37
2022-08-22T00:14:11.976Z,80.25
2022-08-22T00:17:36.604Z,80.38
2022-08-22T00:20:50.366Z,80.74
2022-08-22T00:24:10.448Z,80.78
2022-08-22T00:27:22.454Z,80.96
2022-08-22T00:30:27.889Z,81.19
2022-08-22T00:33:43.970Z,81.45
2022-08-22T00:37:03.423Z,81.79
2022-08-22T00:40:43.026Z,81.92
2022-08-22T00:44:36.808Z,82.11
2022-08-22T00:48:04.415Z,82.48
2022-08-22T00:51:52.924Z,82.27
2022-08-22T00:55:21.964Z,82.59
2022-08-22T00:59:22.967Z,82.76
2022-08-22T01:03:14.313Z,83.21
2022-08-22T01:06:31.006Z,83.78
2022-08-22T01:09:54.773Z,84.18
2022-08-22T01:13:32.668Z,84.59
2022-08-22T01:17:09.443Z,84.92
2022-08-22T01:21:20.125Z,85.03
2022-08-22T01:25:26.585Z,85.48
2022-08-22T01:29:33.547Z,85.46
2022-08-22T01:33:39.978Z,85.45
2022-08-22T01:37:39.622Z,85.55
2022-08-22T01:41:49.372Z,85.82
2022-08-22T01:45:23.212Z,86.23
2022-08-22T01:48:39.363Z,86.16
2022-08-22T01:51:53.438Z,86.80
2022-08-22T01:55:08.510Z,87.28
2022-08-22T01:58:21.299Z,87.60
2022-08-22T02:01:53.255Z,87.64
2022-08-22T02:05:07.188Z,87.87
2022-08-22T02:08:28.219Z,87.50
2022-08-22T02:11:56.376Z,87.53
2022-08-22T02:15:18.406Z,87.40
2022-08-22T02:18:31.031Z,87.53
2022-08-22T02:21:47.527Z,87.17
2022-08-22T02:25:06.975Z,87.12
2022-08-22T02:28:30.834Z,87.14
2022-08-22T02:31:46.376Z,87.32
2022-08-22T02:35:03.701Z,87.59
2022-08-22T02:38:38.474Z,87.74
2022-08-22T02:41:55.078Z,88.00
2022-08-22T02:45:22.593Z,88.42
2022-08-22T02:48:42.755Z,88.67
2022-08-22T02:51:56.269Z,88.81
2022-08-22T02:55:08.995Z,88.88
2022-08-22T02:58:24.486Z,89.15
2022-08-22T03:01:45.528Z,89.58
2022-08-22T03:04:55.739Z,89.49
2022-08-22T03:08:14.684Z,89.66
2022-08-22T03:11:27.976Z,89.76
2022-08-22T03:14:41.255Z,90.03
2022-08-22T03:17:57.297Z,90.35
2022-08-22T03:21:18.601Z,90.73
2022-08-22T03:24:32.910Z,90.59
2022-08-22T03:27:46.174Z,91.03
2022-08-22T03:31:08.354Z,91.17
2022-08-22T03:34:24.782Z,91.36
2022-08-22T03:37:41.279Z,91.43
2022-08-22T03:41:10.541Z,91.81
2022-08-22T03:44:50.883Z,91.76
2022-08-22T03:48:22.284Z,92.06
2022-08-22T03:51:51.388Z,91.83
2022-08-22T03:55:27.758Z,91.96
2022-08-22T03:59:02.251Z,91.77
2022-08-22T04:02:47.823Z,91.96
2022-08-22T04:06:42.215Z,91.52
2022-08-22T04:10:39.723Z,92.04
2022-08-22T04:14:19.743Z,92.33
2022-08-22T04:17:51.260Z,92.02
2022-08-22T04:21:23.742Z,92.07
2022-08-22T04:24:55.306Z,92.04
2022-08-22T04:28:11.392Z,92.07
2022-08-22T04:31:21.732Z,91.96
2022-08-22T04:34:37.812Z,91.73
2022-08-22T04:37:52.191Z,91.63
2022-08-22T04:41:08.273Z,91.19
2022-08-22T04:44:18.542Z,91.28
2022-08-22T04:47:35.139Z,90.73
2022-08-22T04:50:47.551Z,91.11
2022-08-22T04:54:18.079Z,91.48
2022-08-22T04:57:37.886Z,91.41
2022-08-22T05:00:55.645Z,91.33
2022-08-22T05:04:06.742Z,91.15
2022-08-22T05:07:16.878Z,91.47
2022-08-22T05:10:25.786Z,91.25
2022-08-22T05:13:35.404Z,91.52
2022-08-22T05:16:45.025Z,91.60
2022-08-22T05:19:56.510Z,91.98
2022-08-22T05:23:17.422Z,92.23
2022-08-22T05:26:23.418Z,92.28
2022-08-22T05:29:33.039Z,92.18
2022-08-22T05:32:50.540Z,92.15
2022-08-22T05:36:02.806Z,91.63
2022-08-22T05:39:15.175Z,91.88
2022-08-22T05:42:27.559Z,90.83
2022-08-22T05:45:36.487Z,90.83
2022-08-22T05:48:47.483Z,90.05
2022-08-22T05:52:17.059Z,89.46
2022-08-22T05:55:29.999Z,87.74
2022-08-22T05:58:55.613Z,85.40
2022-08-22T06:02:10.680Z,82.97
2022-08-22T06:05:14.465Z,80.63
2022-08-22T06:08:26.287Z,78.45
2022-08-22T06:11:38.867Z,76.98
2022-08-22T06:14:54.170Z,75.80
2022-08-22T06:18:06.220Z,75.15
2022-08-22T06:21:14.604Z,74.01
2022-08-22T06:24:25.086Z,72.62
2022-08-22T06:27:31.435Z,71.58
2022-08-22T06:30:38.142Z,70.88
2022-08-22T06:33:46.635Z,70.18
2022-08-22T06:36:52.952Z,69.36
2022-08-22T06:39:57.996Z,69.21
2022-08-22T06:43:01.856Z,68.90
2022-08-22T06:46:07.403Z,68.67
2022-08-22T06:49:14.037Z,68.19
2022-08-22T06:52:24.484Z,67.02
2022-08-22T06:55:31.556Z,67.14
2022-08-22T06:58:39.957Z,67.12
2022-08-22T07:01:52.147Z,66.66
2022-08-22T07:04:57.743Z,65.35
2022-08-22T07:08:08.813Z,64.63
2022-08-22T07:11:21.877Z,63.53
2022-08-22T07:14:32.539Z,63.83
2022-08-22T07:17:40.509Z,63.03
2022-08-22T07:20:54.549Z,62.95
2022-08-22T07:24:02.160Z,61.45
2022-08-22T07:27:28.305Z,61.16
2022-08-22T07:30:51.401Z,60.79
2022-08-22T07:34:05.868Z,60.95
2022-08-22T07:37:23.969Z,60.74
2022-08-22T07:40:39.144Z,60.53
2022-08-22T07:43:49.281Z,60.43
2022-08-22T07:47:00.686Z,60.21
2022-08-22T07:50:10.552Z,60.05
2022-08-22T07:53:28.015Z,59.88
2022-08-22T07:56:42.395Z,58.55
2022-08-22T07:59:52.102Z,58.24
2022-08-22T08:03:00.408Z,58.11
2022-08-22T08:06:05.750Z,56.19
2022-08-22T08:09:16.276Z,56.81
2022-08-22T08:12:30.272Z,56.79
2022-08-22T08:15:46.909Z,56.81
2022-08-22T08:18:54.504Z,57.82
2022-08-22T08:22:00.586Z,56.45
2022-08-22T08:25:08.784Z,56.25
2022-08-22T08:28:30.321Z,56.12
2022-08-22T08:31:43.333Z,56.25
2022-08-22T08:34:49.527Z,54.13
2022-08-22T08:38:02.809Z,53.71
2022-08-22T08:41:50.915Z,53.86
2022-08-22T08:45:20.471Z,53.80
2022-08-22T08:48:55.066Z,52.89
2022-08-22T08:52:53.058Z,52.95
2022-08-22T08:56:06.955Z,54.24
2022-08-22T08:59:44.334Z,51.15
2022-08-22T09:03:15.458Z,50.48
2022-08-22T09:06:56.633Z,50.29
2022-08-22T09:10:46.416Z,50.20
2022-08-22T09:14:14.127Z,49.42
2022-08-22T09:17:51.927Z,50.37
2022-08-22T09:21:31.565Z,50.31
2022-08-22T09:25:23.599Z,49.31
2022-08-22T09:28:36.162Z,49.64
2022-08-22T09:31:54.880Z,48.94
2022-08-22T09:35:18.659Z,48.06
2022-08-22T09:38:48.029Z,47.85
2022-08-22T09:42:02.662Z,48.88
2022-08-22T09:45:43.178Z,48.90
2022-08-22T09:49:06.492Z,48.81
2022-08-22T09:52:34.638Z,48.51
2022-08-22T09:55:54.057Z,49.01
2022-08-22T09:59:09.696Z,49.01
2022-08-22T10:02:31.588Z,47.79
2022-08-22T10:05:46.969Z,48.36
2022-08-22T10:09:09.086Z,47.38
2022-08-22T10:12:24.837Z,47.76
2022-08-22T10:15:40.023Z,48.57
2022-08-22T10:19:00.842Z,49.88
2022-08-22T10:22:44.474Z,49.78
2022-08-22T10:25:55.802Z,48.86
2022-08-22T10:29:32.880Z,48.72
2022-08-22T10:32:47.266Z,47.96
2022-08-22T10:36:05.373Z,47.90
2022-08-22T10:39:18.059Z,47.04
2022-08-22T10:42:35.714Z,45.70
2022-08-22T10:46:12.328Z,44.47
2022-08-22T10:49:29.228Z,43.78
2022-08-22T10:52:45.087Z,43.90
2022-08-22T10:55:55.191Z,44.14
2022-08-22T10:59:18.687Z,43.78
2022-08-22T11:02:44.784Z,41.97
2022-08-22T11:05:51.071Z,42.59
2022-08-22T11:09:16.393Z,42.32
2022-08-22T11:12:41.485Z,42.73
2022-08-22T11:16:04.896Z,41.48
2022-08-22T11:19:46.038Z,41.82
2022-08-22T11:23:12.330Z,40.63
2022-08-22T11:26:47.439Z,40.00
2022-08-22T11:30:02.079Z,40.62
2022-08-22T11:33:46.674Z,41.04
2022-08-22T11:36:57.221Z,42.55
2022-08-22T11:40:24.215Z,43.45
2022-08-22T11:43:51.556Z,43.06
2022-08-22T11:46:58.835Z,42.63
2022-08-22T11:50:20.376Z,40.93
2022-08-22T11:53:37.311Z,41.53
2022-08-22T11:56:52.614Z,41.67
2022-08-22T12:00:15.215Z,41.72
2022-08-22T12:03:44.184Z,41.15
2022-08-22T12:07:07.071Z,39.40
2022-08-22T12:10:18.696Z,38.47
2022-08-22T12:13:42.706Z,37.81
2022-08-22T12:17:41.579Z,39.17
2022-08-22T12:21:41.707Z,39.29
2022-08-22T12:25:12.078Z,38.96
2022-08-22T12:28:30.885Z,39.08
2022-08-22T12:32:01.715Z,38.79
2022-08-22T12:35:34.454Z,39.26
2022-08-22T12:38:59.543Z,39.27
2022-08-22T12:42:25.704Z,39.73
2022-08-22T12:46:01.678Z,38.44
2022-08-22T12:49:32.110Z,38.89
2022-08-22T12:53:26.428Z,38.21
2022-08-22T12:56:48.642Z,37.11
2022-08-22T13:00:01.818Z,37.91
2022-08-22T13:03:11.462Z,38.42
2022-08-22T13:06:53.298Z,38.57
2022-08-22T13:10:04.015Z,38.69
2022-08-22T13:13:14.431Z,39.64
2022-08-22T13:16:24.879Z,39.83
2022-08-22T13:19:34.710Z,40.74
2022-08-22T13:22:45.577Z,39.77
2022-08-22T13:26:09.535Z,40.04
2022-08-22T13:29:26.074Z,39.22
2022-08-22T13:32:44.387Z,38.61
2022-08-22T13:35:54.070Z,37.62
2022-08-22T13:39:07.292Z,37.42
2022-08-22T13:42:27.608Z,37.50
2022-08-22T13:45:58.054Z,37.12
2022-08-22T13:49:13.636Z,37.26
2022-08-22T13:52:31.552Z,36.96
2022-08-22T13:55:49.215Z,36.80
2022-08-22T13:58:59.534Z,36.57
2022-08-22T14:02:17.994Z,36.69
2022-08-22T14:05:30.255Z,36.29
2022-08-22T14:08:45.770Z,35.49
2022-08-22T14:11:56.270Z,34.54
2022-08-22T14:15:03.853Z,34.74
2022-08-22T14:18:15.672Z,35.30
2022-08-22T14:21:40.858Z,35.89
2022-08-22T14:24:55.656Z,35.68
2022-08-22T14:28:06.313Z,35.67
2022-08-22T14:31:14.449Z,36.46
2022-08-22T14:34:19.089Z,36.31
2022-08-22T14:37:31.672Z,36.18
2022-08-22T14:40:38.543Z,35.38
2022-08-22T14:43:54.691Z,35.81
2022-08-22T14:47:32.658Z,36.11
2022-08-22T14:50:53.048Z,36.08
2022-08-22T14:54:14.127Z,36.68
2022-08-22T14:57:24.978Z,37.96
2022-08-22T15:00:38.845Z,37.93
2022-08-22T15:03:44.120Z,37.76
2022-08-22T15:06:58.611Z,37.44
2022-08-22T15:10:12.053Z,37.24
2022-08-22T15:13:25.149Z,37.09
2022-08-22T15:16:37.394Z,37.10
2022-08-22T15:19:52.054Z,37.34
2022-08-22T15:23:00.328Z,37.68
2022-08-22T15:26:13.048Z,37.49
2022-08-22T15:29:21.521Z,37.23
2022-08-22T15:32:30.132Z,38.00
2022-08-22T15:35:38.819Z,36.65
2022-08-22T15:38:48.215Z,36.59
2022-08-22T15:41:53.448Z,36.64
2022-08-22T15:44:57.707Z,36.87
2022-08-22T15:48:05.738Z,36.89
2022-08-22T15:51:13.457Z,37.52
2022-08-22T15:54:25.063Z,38.38
2022-08-22T15:57:34.981Z,38.48
2022-08-22T16:00:45.578Z,38.79
2022-08-22T16:04:01.188Z,39.01
2022-08-22T16:07:36.235Z,39.18
2022-08-22T16:10:45.072Z,39.17
2022-08-22T16:14:21.278Z,38.64
2022-08-22T16:17:53.319Z,38.83
2022-08-22T16:20:59.176Z,38.70
2022-08-22T16:24:33.992Z,38.63
2022-08-22T16:27:57.155Z,38.62
2022-08-22T16:31:24.652Z,38.76
2022-08-22T16:34:43.897Z,38.09
2022-08-22T16:37:51.553Z,38.13
2022-08-22T16:40:56.535Z,38.30
2022-08-22T16:44:43.368Z,38.69
2022-08-22T16:47:54.562Z,38.63
2022-08-22T16:51:21.199Z,39.18
2022-08-22T16:54:46.315Z,39.64
2022-08-22T16:58:06.299Z,39.03
2022-08-22T17:01:21.447Z,39.31
2022-08-22T17:04:38.032Z,39.66
2022-08-22T17:08:04.373Z,40.38
2022-08-22T17:11:32.118Z,40.14
2022-08-22T17:14:55.202Z,40.14
2022-08-22T17:18:41.234Z,40.79
2022-08-22T17:21:57.279Z,40.76
2022-08-22T17:25:21.611Z,40.93
2022-08-22T17:28:40.655Z,41.20
2022-08-22T17:31:55.252Z,41.30
2022-08-22T17:35:14.620Z,41.19
2022-08-22T17:38:38.436Z,41.48
2022-08-22T17:41:54.186Z,41.46
2022-08-22T17:45:10.834Z,44.46
2022-08-22T17:48:21.811Z,45.68
2022-08-22T17:51:33.928Z,46.44
2022-08-22T17:54:49.047Z,46.57
2022-08-22T17:58:01.944Z,46.61
2022-08-22T18:01:14.000Z,47.02
2022-08-22T18:04:47.377Z,46.95
2022-08-22T18:08:04.109Z,47.53
2022-08-22T18:11:20.799Z,47.74
2022-08-22T18:14:34.770Z,48.63
2022-08-22T18:17:48.472Z,48.94
2022-08-22T18:21:00.414Z,49.73
2022-08-22T18:24:31.288Z,50.11
2022-08-22T18:27:48.190Z,50.64
2022-08-22T18:31:02.081Z,51.23
2022-08-22T18:34:20.791Z,51.14
2022-08-22T18:37:50.815Z,50.66
2022-08-22T18:41:05.586Z,51.00
2022-08-22T18:44:25.408Z,51.10
2022-08-22T18:47:33.848Z,51.20
2022-08-22T18:50:38.703Z,51.35
2022-08-22T18:53:49.937Z,51.29
2022-08-22T18:57:00.727Z,51.56
2022-08-22T19:00:13.267Z,51.76
2022-08-22T19:03:42.662Z,52.02
2022-08-22T19:07:17.194Z,52.06
2022-08-22T19:10:55.050Z,51.89
2022-08-22T19:14:51.199Z,51.29
2022-08-22T19:18:27.090Z,51.23
2022-08-22T19:21:51.751Z,51.20
2022-08-22T19:25:26.169Z,51.39
2022-08-22T19:28:38.451Z,51.34
2022-08-22T19:31:53.184Z,51.51
2022-08-22T19:35:21.764Z,51.61
2022-08-22T19:38:58.687Z,51.77
2022-08-22T19:42:02.703Z,52.00
2022-08-22T19:45:29.013Z,52.07
2022-08-22T19:48:45.618Z,52.21
2022-08-22T19:52:12.005Z,52.44
2022-08-22T19:55:30.115Z,52.72
2022-08-22T19:58:56.457Z,52.81
2022-08-22T20:02:19.283Z,52.96
2022-08-22T20:05:37.436Z,53.17
2022-08-22T20:09:04.152Z,53.66
2022-08-22T20:12:20.359Z,53.86
2022-08-22T20:15:28.504Z,53.86
2022-08-22T20:19:06.561Z,54.27
2022-08-22T20:22:19.483Z,54.56
2022-08-22T20:25:41.850Z,54.64
2022-08-22T20:28:52.443Z,54.76
2022-08-22T20:31:58.875Z,54.93
2022-08-22T20:35:07.169Z,55.17
2022-08-22T20:38:17.666Z,55.42
2022-08-22T20:41:27.895Z,55.70
2022-08-22T20:44:38.442Z,55.96
2022-08-22T20:47:50.474Z,56.32
2022-08-22T20:51:04.244Z,56.45
2022-08-22T20:54:20.200Z,56.54
2022-08-22T20:57:25.326Z,56.50
2022-08-22T21:00:35.647Z,56.30
2022-08-22T21:03:45.764Z,56.02
2022-08-22T21:07:00.151Z,55.77
2022-08-22T21:10:33.719Z,55.70
2022-08-22T21:13:39.175Z,55.31
2022-08-22T21:16:42.806Z,55.44
2022-08-22T21:19:46.633Z,55.12
2022-08-22T21:22:51.858Z,54.99
2022-08-22T21:26:00.328Z,54.95
2022-08-22T21:29:19.253Z,54.92
2022-08-22T21:32:33.643Z,55.03
2022-08-22T21:35:37.350Z,54.93
2022-08-22T21:38:47.252Z,54.82
2022-08-22T21:41:54.458Z,54.79
2022-08-22T21:45:02.939Z,54.72
2022-08-22T21:48:34.731Z,54.55
2022-08-22T21:51:45.530Z,54.32
2022-08-22T21:54:49.095Z,54.66
2022-08-22T21:58:07.859Z,54.22
2022-08-22T22:01:33.931Z,54.39
2022-08-22T22:04:37.543Z,54.03
2022-08-22T22:07:45.738Z,53.85
2022-08-22T22:10:51.398Z,53.66
2022-08-22T22:13:55.725Z,53.60
2022-08-22T22:17:00.769Z,53.26
2022-08-22T22:20:05.516Z,53.51
2022-08-22T22:23:09.932Z,53.47
2022-08-22T22:26:15.349Z,53.54
2022-08-22T22:29:18.956Z,53.29
2022-08-22T22:32:23.925Z,53.67
2022-08-22T22:35:27.802Z,53.74
2022-08-22T22:38:31.460Z,53.53
2022-08-22T22:41:36.139Z,53.62
2022-08-22T22:44:39.846Z,53.63
2022-08-22T22:47:48.926Z,53.69
2022-08-22T22:50:53.465Z,53.98
2022-08-22T22:53:57.848Z,54.04
2022-08-22T22:57:01.448Z,53.90
2022-08-22T23:00:07.599Z,53.97
2022-08-22T23:03:12.603Z,53.88
2022-08-22T23:06:20.159Z,54.06
2022-08-22T23:09:38.621Z,54.36
2022-08-22T23:12:48.724Z,54.31
2022-08-22T23:15:52.367Z,54.41
2022-08-22T23:18:58.099Z,54.58
2022-08-22T23:22:03.307Z,54.85
2022-08-22T23:25:07.862Z,55.04
2022-08-22T23:28:11.596Z,55.15
2022-08-22T23:31:27.419Z,54.95
2022-08-22T23:34:35.997Z,55.40
2022-08-22T23:37:39.752Z,55.16
2022-08-22T23:40:43.427Z,55.06
2022-08-22T23:43:50.517Z,54.92
2022-08-22T23:46:54.751Z,55.17
2022-08-22T23:50:05.741Z,55.20
2022-08-22T23:53:10.135Z,55.41
2022-08-22T23:56:19.442Z,55.49
2022-08-22T23:59:30.069Z,55.81
